sensor_id;sensor_type;location;lat;lon;timestamp;P1;durP1;ratioP1;P2;durP2;ratioP2
18340;SDS011;9296;48.084;16.352;2023-03-05T00:02:50;21.63;;;12.18;;
18340;SDS011;9296;48.084;16.352;2023-03-05T00:05:17;20.60;;;11.65;;
18340;SDS011;9296;48.084;16.352;2023-03-05T00:07:46;18.65;;;10.48;;
18340;SDS011;9296;48.084;16.352;2023-03-05T00:10:13;20.95;;;10.95;;
18340;SDS011;9296;48.084;16.352;2023-03-05T00:12:40;21.67;;;10.90;;
18340;SDS011;9296;48.084;16.352;2023-03-05T00:15:08;20.27;;;11.35;;
18340;SDS011;9296;48.084;16.352;2023-03-05T00:17:35;21.65;;;12.23;;
18340;SDS011;9296;48.084;16.352;2023-03-05T00:20:03;20.63;;;11.77;;
18340;SDS011;9296;48.084;16.352;2023-03-05T00:22:30;22.98;;;12.00;;
18340;SDS011;9296;48.084;16.352;2023-03-05T00:24:58;19.38;;;11.23;;
18340;SDS011;9296;48.084;16.352;2023-03-05T00:27:26;19.90;;;11.35;;
18340;SDS011;9296;48.084;16.352;2023-03-05T00:30:12;19.90;;;11.20;;
18340;SDS011;9296;48.084;16.352;2023-03-05T00:32:39;23.73;;;11.13;;
18340;SDS011;9296;48.084;16.352;2023-03-05T00:35:07;22.40;;;11.52;;
18340;SDS011;9296;48.084;16.352;2023-03-05T00:37:34;21.15;;;11.23;;
18340;SDS011;9296;48.084;16.352;2023-03-05T00:40:03;20.50;;;11.02;;
18340;SDS011;9296;48.084;16.352;2023-03-05T00:42:30;19.95;;;10.50;;
18340;SDS011;9296;48.084;16.352;2023-03-05T00:45:02;21.27;;;11.43;;
18340;SDS011;9296;48.084;16.352;2023-03-05T00:47:30;22.05;;;11.30;;
18340;SDS011;9296;48.084;16.352;2023-03-05T00:49:57;20.45;;;10.63;;
18340;SDS011;9296;48.084;16.352;2023-03-05T00:52:24;20.10;;;10.48;;
18340;SDS011;9296;48.084;16.352;2023-03-05T00:54:52;23.42;;;11.48;;
18340;SDS011;9296;48.084;16.352;2023-03-05T00:57:20;19.33;;;10.68;;
18340;SDS011;9296;48.084;16.352;2023-03-05T00:59:48;20.80;;;10.70;;
18340;SDS011;9296;48.084;16.352;2023-03-05T01:02:15;18.75;;;10.43;;
18340;SDS011;9296;48.084;16.352;2023-03-05T01:04:42;17.20;;;9.85;;
18340;SDS011;9296;48.084;16.352;2023-03-05T01:07:11;17.27;;;9.52;;
18340;SDS011;9296;48.084;16.352;2023-03-05T01:09:38;21.40;;;10.30;;
18340;SDS011;9296;48.084;16.352;2023-03-05T01:12:06;20.27;;;9.82;;
18340;SDS011;9296;48.084;16.352;2023-03-05T01:17:38;16.85;;;8.90;;
18340;SDS011;9296;48.084;16.352;2023-03-05T01:20:06;19.65;;;9.52;;
18340;SDS011;9296;48.084;16.352;2023-03-05T01:22:33;17.25;;;9.32;;
18340;SDS011;9296;48.084;16.352;2023-03-05T01:25:01;17.60;;;9.63;;
18340;SDS011;9296;48.084;16.352;2023-03-05T01:27:28;17.35;;;9.35;;
18340;SDS011;9296;48.084;16.352;2023-03-05T01:29:55;17.17;;;9.05;;
18340;SDS011;9296;48.084;16.352;2023-03-05T01:32:22;15.48;;;8.95;;
18340;SDS011;9296;48.084;16.352;2023-03-05T01:34:51;17.52;;;8.95;;
18340;SDS011;9296;48.084;16.352;2023-03-05T01:37:18;18.30;;;9.32;;
18340;SDS011;9296;48.084;16.352;2023-03-05T01:39:45;18.30;;;9.93;;
18340;SDS011;9296;48.084;16.352;2023-03-05T01:42:13;19.13;;;9.52;;
18340;SDS011;9296;48.084;16.352;2023-03-05T01:47:22;17.10;;;9.38;;
18340;SDS011;9296;48.084;16.352;2023-03-05T01:49:49;16.45;;;8.93;;
18340;SDS011;9296;48.084;16.352;2023-03-05T01:52:20;20.45;;;9.80;;
18340;SDS011;9296;48.084;16.352;2023-03-05T01:54:49;15.88;;;8.70;;
18340;SDS011;9296;48.084;16.352;2023-03-05T01:57:17;17.08;;;8.80;;
18340;SDS011;9296;48.084;16.352;2023-03-05T02:02:50;19.10;;;9.65;;
18340;SDS011;9296;48.084;16.352;2023-03-05T02:05:19;18.33;;;9.77;;
18340;SDS011;9296;48.084;16.352;2023-03-05T02:07:52;14.95;;;8.90;;
18340;SDS011;9296;48.084;16.352;2023-03-05T02:10:21;19.08;;;9.23;;
18340;SDS011;9296;48.084;16.352;2023-03-05T02:12:48;17.40;;;9.07;;
18340;SDS011;9296;48.084;16.352;2023-03-05T02:15:16;14.55;;;8.80;;
18340;SDS011;9296;48.084;16.352;2023-03-05T02:17:43;16.88;;;8.38;;
18340;SDS011;9296;48.084;16.352;2023-03-05T02:20:11;14.60;;;8.55;;
18340;SDS011;9296;48.084;16.352;2023-03-05T02:22:40;16.05;;;8.98;;
18340;SDS011;9296;48.084;16.352;2023-03-05T02:25:16;17.50;;;9.07;;
18340;SDS011;9296;48.084;16.352;2023-03-05T02:27:45;18.63;;;9.65;;
18340;SDS011;9296;48.084;16.352;2023-03-05T02:30:14;18.20;;;8.93;;
18340;SDS011;9296;48.084;16.352;2023-03-05T02:32:41;17.75;;;9.13;;
18340;SDS011;9296;48.084;16.352;2023-03-05T02:35:08;18.25;;;9.32;;
18340;SDS011;9296;48.084;16.352;2023-03-05T02:37:35;18.67;;;9.13;;
18340;SDS011;9296;48.084;16.352;2023-03-05T02:40:05;20.38;;;9.20;;
18340;SDS011;9296;48.084;16.352;2023-03-05T02:42:33;17.13;;;9.98;;
18340;SDS011;9296;48.084;16.352;2023-03-05T02:48:03;17.15;;;9.02;;
18340;SDS011;9296;48.084;16.352;2023-03-05T02:50:31;16.10;;;9.23;;
18340;SDS011;9296;48.084;16.352;2023-03-05T02:52:58;20.38;;;10.30;;
18340;SDS011;9296;48.084;16.352;2023-03-05T02:55:27;17.70;;;9.88;;
18340;SDS011;9296;48.084;16.352;2023-03-05T02:57:54;15.68;;;9.07;;
18340;SDS011;9296;48.084;16.352;2023-03-05T03:00:21;17.63;;;9.40;;
18340;SDS011;9296;48.084;16.352;2023-03-05T03:02:49;17.42;;;9.32;;
18340;SDS011;9296;48.084;16.352;2023-03-05T03:05:16;19.80;;;9.85;;
18340;SDS011;9296;48.084;16.352;2023-03-05T03:07:43;15.27;;;8.75;;
18340;SDS011;9296;48.084;16.352;2023-03-05T03:10:10;18.38;;;9.88;;
18340;SDS011;9296;48.084;16.352;2023-03-05T03:12:39;16.35;;;8.73;;
18340;SDS011;9296;48.084;16.352;2023-03-05T03:15:07;18.52;;;9.50;;
18340;SDS011;9296;48.084;16.352;2023-03-05T03:17:35;16.75;;;9.18;;
18340;SDS011;9296;48.084;16.352;2023-03-05T03:20:03;15.48;;;8.57;;
18340;SDS011;9296;48.084;16.352;2023-03-05T03:22:31;15.13;;;9.20;;
18340;SDS011;9296;48.084;16.352;2023-03-05T03:24:58;15.65;;;8.63;;
18340;SDS011;9296;48.084;16.352;2023-03-05T03:27:26;16.67;;;9.35;;
18340;SDS011;9296;48.084;16.352;2023-03-05T03:30:13;15.88;;;8.98;;
18340;SDS011;9296;48.084;16.352;2023-03-05T03:32:41;14.27;;;8.25;;
18340;SDS011;9296;48.084;16.352;2023-03-05T03:35:09;16.08;;;8.90;;
18340;SDS011;9296;48.084;16.352;2023-03-05T03:37:36;14.25;;;8.75;;
18340;SDS011;9296;48.084;16.352;2023-03-05T03:40:04;15.32;;;8.32;;
18340;SDS011;9296;48.084;16.352;2023-03-05T03:42:32;16.05;;;9.27;;
18340;SDS011;9296;48.084;16.352;2023-03-05T03:44:59;14.90;;;8.50;;
18340;SDS011;9296;48.084;16.352;2023-03-05T03:47:28;14.38;;;8.30;;
18340;SDS011;9296;48.084;16.352;2023-03-05T03:49:55;13.20;;;7.82;;
18340;SDS011;9296;48.084;16.352;2023-03-05T03:52:23;14.35;;;8.45;;
18340;SDS011;9296;48.084;16.352;2023-03-05T03:54:50;15.45;;;8.88;;
18340;SDS011;9296;48.084;16.352;2023-03-05T03:57:19;13.73;;;8.30;;
18340;SDS011;9296;48.084;16.352;2023-03-05T03:59:46;15.10;;;7.57;;
18340;SDS011;9296;48.084;16.352;2023-03-05T04:02:15;12.52;;;8.00;;
18340;SDS011;9296;48.084;16.352;2023-03-05T04:04:43;14.63;;;8.05;;
18340;SDS011;9296;48.084;16.352;2023-03-05T04:07:10;13.48;;;7.50;;
18340;SDS011;9296;48.084;16.352;2023-03-05T04:09:37;14.07;;;7.75;;
18340;SDS011;9296;48.084;16.352;2023-03-05T04:12:05;12.70;;;7.65;;
18340;SDS011;9296;48.084;16.352;2023-03-05T04:14:32;13.25;;;7.45;;
18340;SDS011;9296;48.084;16.352;2023-03-05T04:17:00;11.40;;;7.03;;
18340;SDS011;9296;48.084;16.352;2023-03-05T04:19:27;12.27;;;7.10;;
18340;SDS011;9296;48.084;16.352;2023-03-05T04:21:56;11.68;;;6.85;;
18340;SDS011;9296;48.084;16.352;2023-03-05T04:24:23;12.90;;;7.72;;
18340;SDS011;9296;48.084;16.352;2023-03-05T04:26:50;17.65;;;7.57;;
18340;SDS011;9296;48.084;16.352;2023-03-05T04:32:22;11.98;;;7.55;;
18340;SDS011;9296;48.084;16.352;2023-03-05T04:34:52;15.15;;;7.55;;
18340;SDS011;9296;48.084;16.352;2023-03-05T04:37:21;13.05;;;7.70;;
18340;SDS011;9296;48.084;16.352;2023-03-05T04:39:48;12.13;;;7.00;;
18340;SDS011;9296;48.084;16.352;2023-03-05T04:42:15;13.05;;;7.38;;
18340;SDS011;9296;48.084;16.352;2023-03-05T04:45:02;12.50;;;7.07;;
18340;SDS011;9296;48.084;16.352;2023-03-05T04:47:30;13.40;;;7.03;;
18340;SDS011;9296;48.084;16.352;2023-03-05T04:49:58;12.68;;;7.32;;
18340;SDS011;9296;48.084;16.352;2023-03-05T04:52:26;12.20;;;6.80;;
18340;SDS011;9296;48.084;16.352;2023-03-05T04:54:54;12.10;;;6.93;;
18340;SDS011;9296;48.084;16.352;2023-03-05T04:57:21;13.40;;;7.28;;
18340;SDS011;9296;48.084;16.352;2023-03-05T05:02:53;13.68;;;7.20;;
18340;SDS011;9296;48.084;16.352;2023-03-05T05:05:21;12.88;;;7.40;;
18340;SDS011;9296;48.084;16.352;2023-03-05T05:07:51;12.43;;;7.20;;
18340;SDS011;9296;48.084;16.352;2023-03-05T05:10:19;14.18;;;7.95;;
18340;SDS011;9296;48.084;16.352;2023-03-05T05:12:46;16.50;;;9.20;;
18340;SDS011;9296;48.084;16.352;2023-03-05T05:18:18;13.93;;;8.02;;
18340;SDS011;9296;48.084;16.352;2023-03-05T05:20:45;20.00;;;9.40;;
18340;SDS011;9296;48.084;16.352;2023-03-05T05:23:14;18.77;;;9.77;;
18340;SDS011;9296;48.084;16.352;2023-03-05T05:25:42;17.80;;;10.07;;
18340;SDS011;9296;48.084;16.352;2023-03-05T05:28:09;16.60;;;9.43;;
18340;SDS011;9296;48.084;16.352;2023-03-05T05:30:37;20.40;;;10.02;;
18340;SDS011;9296;48.084;16.352;2023-03-05T05:33:05;17.55;;;9.90;;
18340;SDS011;9296;48.084;16.352;2023-03-05T05:35:32;19.98;;;10.63;;
18340;SDS011;9296;48.084;16.352;2023-03-05T05:38:00;21.63;;;10.18;;
18340;SDS011;9296;48.084;16.352;2023-03-05T05:40:28;19.30;;;10.43;;
18340;SDS011;9296;48.084;16.352;2023-03-05T05:42:56;20.42;;;10.27;;
18340;SDS011;9296;48.084;16.352;2023-03-05T05:45:23;18.55;;;10.32;;
18340;SDS011;9296;48.084;16.352;2023-03-05T05:47:50;21.20;;;10.43;;
18340;SDS011;9296;48.084;16.352;2023-03-05T05:50:18;18.48;;;9.73;;
18340;SDS011;9296;48.084;16.352;2023-03-05T05:52:45;23.65;;;12.02;;
18340;SDS011;9296;48.084;16.352;2023-03-05T05:55:12;19.75;;;10.02;;
18340;SDS011;9296;48.084;16.352;2023-03-05T05:57:41;21.17;;;10.73;;
18340;SDS011;9296;48.084;16.352;2023-03-05T06:00:09;18.85;;;10.35;;
18340;SDS011;9296;48.084;16.352;2023-03-05T06:02:36;19.58;;;9.82;;
18340;SDS011;9296;48.084;16.352;2023-03-05T06:05:04;21.98;;;10.63;;
18340;SDS011;9296;48.084;16.352;2023-03-05T06:07:32;19.67;;;10.13;;
18340;SDS011;9296;48.084;16.352;2023-03-05T06:10:00;18.58;;;9.95;;
18340;SDS011;9296;48.084;16.352;2023-03-05T06:12:27;20.13;;;10.30;;
18340;SDS011;9296;48.084;16.352;2023-03-05T06:18:00;17.65;;;10.10;;
18340;SDS011;9296;48.084;16.352;2023-03-05T06:20:27;17.52;;;9.05;;
18340;SDS011;9296;48.084;16.352;2023-03-05T06:22:54;19.38;;;9.20;;
18340;SDS011;9296;48.084;16.352;2023-03-05T06:25:22;20.42;;;10.07;;
18340;SDS011;9296;48.084;16.352;2023-03-05T06:27:49;19.58;;;10.40;;
18340;SDS011;9296;48.084;16.352;2023-03-05T06:30:16;17.08;;;9.88;;
18340;SDS011;9296;48.084;16.352;2023-03-05T06:32:43;20.70;;;10.68;;
18340;SDS011;9296;48.084;16.352;2023-03-05T06:35:12;19.10;;;10.25;;
18340;SDS011;9296;48.084;16.352;2023-03-05T06:37:39;19.80;;;10.02;;
18340;SDS011;9296;48.084;16.352;2023-03-05T06:40:07;18.33;;;10.07;;
18340;SDS011;9296;48.084;16.352;2023-03-05T06:42:35;18.63;;;9.55;;
18340;SDS011;9296;48.084;16.352;2023-03-05T06:45:21;19.77;;;11.02;;
18340;SDS011;9296;48.084;16.352;2023-03-05T06:47:48;21.60;;;10.40;;
18340;SDS011;9296;48.084;16.352;2023-03-05T06:50:16;20.38;;;11.13;;
18340;SDS011;9296;48.084;16.352;2023-03-05T06:52:44;20.17;;;10.88;;
18340;SDS011;9296;48.084;16.352;2023-03-05T06:55:11;19.52;;;11.23;;
18340;SDS011;9296;48.084;16.352;2023-03-05T06:57:38;24.92;;;12.77;;
18340;SDS011;9296;48.084;16.352;2023-03-05T07:00:21;23.48;;;11.57;;
18340;SDS011;9296;48.084;16.352;2023-03-05T07:02:50;21.02;;;11.15;;
18340;SDS011;9296;48.084;16.352;2023-03-05T07:05:18;21.60;;;11.63;;
18340;SDS011;9296;48.084;16.352;2023-03-05T07:07:45;22.13;;;11.98;;
18340;SDS011;9296;48.084;16.352;2023-03-05T07:10:12;22.13;;;12.43;;
18340;SDS011;9296;48.084;16.352;2023-03-05T07:12:40;26.90;;;12.60;;
18340;SDS011;9296;48.084;16.352;2023-03-05T07:15:07;22.00;;;11.88;;
18340;SDS011;9296;48.084;16.352;2023-03-05T07:17:34;22.38;;;11.95;;
18340;SDS011;9296;48.084;16.352;2023-03-05T07:20:02;24.23;;;12.20;;
18340;SDS011;9296;48.084;16.352;2023-03-05T07:22:30;27.45;;;11.95;;
18340;SDS011;9296;48.084;16.352;2023-03-05T07:24:58;21.35;;;11.30;;
18340;SDS011;9296;48.084;16.352;2023-03-05T07:27:25;19.75;;;11.73;;
18340;SDS011;9296;48.084;16.352;2023-03-05T07:29:52;21.58;;;10.98;;
18340;SDS011;9296;48.084;16.352;2023-03-05T07:32:19;21.35;;;10.85;;
18340;SDS011;9296;48.084;16.352;2023-03-05T07:34:46;17.38;;;9.95;;
18340;SDS011;9296;48.084;16.352;2023-03-05T07:37:14;18.90;;;10.32;;
18340;SDS011;9296;48.084;16.352;2023-03-05T07:39:42;18.25;;;10.23;;
18340;SDS011;9296;48.084;16.352;2023-03-05T07:42:10;19.83;;;10.38;;
18340;SDS011;9296;48.084;16.352;2023-03-05T07:47:56;18.45;;;10.15;;
18340;SDS011;9296;48.084;16.352;2023-03-05T07:50:23;17.17;;;10.00;;
18340;SDS011;9296;48.084;16.352;2023-03-05T07:52:50;17.10;;;10.45;;
18340;SDS011;9296;48.084;16.352;2023-03-05T07:55:19;18.88;;;10.10;;
18340;SDS011;9296;48.084;16.352;2023-03-05T07:57:46;15.45;;;9.80;;
18340;SDS011;9296;48.084;16.352;2023-03-05T08:00:14;16.67;;;9.38;;
18340;SDS011;9296;48.084;16.352;2023-03-05T08:02:41;18.05;;;10.05;;
18340;SDS011;9296;48.084;16.352;2023-03-05T08:05:08;17.92;;;9.73;;
18340;SDS011;9296;48.084;16.352;2023-03-05T08:07:35;19.40;;;10.50;;
18340;SDS011;9296;48.084;16.352;2023-03-05T08:10:03;17.85;;;10.20;;
18340;SDS011;9296;48.084;16.352;2023-03-05T08:12:31;15.23;;;9.43;;
18340;SDS011;9296;48.084;16.352;2023-03-05T08:18:03;17.35;;;10.32;;
18340;SDS011;9296;48.084;16.352;2023-03-05T08:20:33;17.27;;;10.65;;
18340;SDS011;9296;48.084;16.352;2023-03-05T08:23:00;18.25;;;9.90;;
18340;SDS011;9296;48.084;16.352;2023-03-05T08:25:27;17.60;;;9.95;;
18340;SDS011;9296;48.084;16.352;2023-03-05T08:27:56;17.80;;;10.65;;
18340;SDS011;9296;48.084;16.352;2023-03-05T08:30:24;16.70;;;9.77;;
18340;SDS011;9296;48.084;16.352;2023-03-05T08:32:52;20.27;;;11.50;;
18340;SDS011;9296;48.084;16.352;2023-03-05T08:35:21;18.17;;;10.75;;
18340;SDS011;9296;48.084;16.352;2023-03-05T08:37:48;16.27;;;10.43;;
18340;SDS011;9296;48.084;16.352;2023-03-05T08:40:16;19.42;;;10.55;;
18340;SDS011;9296;48.084;16.352;2023-03-05T08:42:43;17.23;;;10.63;;
18340;SDS011;9296;48.084;16.352;2023-03-05T08:45:12;20.15;;;10.55;;
18340;SDS011;9296;48.084;16.352;2023-03-05T08:47:39;18.75;;;10.90;;
18340;SDS011;9296;48.084;16.352;2023-03-05T08:50:06;20.15;;;11.15;;
18340;SDS011;9296;48.084;16.352;2023-03-05T08:52:34;21.27;;;12.20;;
18340;SDS011;9296;48.084;16.352;2023-03-05T08:55:01;20.15;;;11.90;;
18340;SDS011;9296;48.084;16.352;2023-03-05T08:57:28;20.05;;;11.65;;
18340;SDS011;9296;48.084;16.352;2023-03-05T09:03:00;21.45;;;11.43;;
18340;SDS011;9296;48.084;16.352;2023-03-05T09:05:27;19.00;;;11.13;;
18340;SDS011;9296;48.084;16.352;2023-03-05T09:07:54;17.33;;;10.80;;
18340;SDS011;9296;48.084;16.352;2023-03-05T09:10:21;19.45;;;10.82;;
18340;SDS011;9296;48.084;16.352;2023-03-05T09:12:49;18.42;;;11.38;;
18340;SDS011;9296;48.084;16.352;2023-03-05T09:15:16;17.45;;;10.15;;
18340;SDS011;9296;48.084;16.352;2023-03-05T09:17:43;21.50;;;11.48;;
18340;SDS011;9296;48.084;16.352;2023-03-05T09:20:12;18.60;;;10.70;;
18340;SDS011;9296;48.084;16.352;2023-03-05T09:22:39;20.52;;;11.52;;
18340;SDS011;9296;48.084;16.352;2023-03-05T09:25:07;18.73;;;11.05;;
18340;SDS011;9296;48.084;16.352;2023-03-05T09:27:35;19.85;;;10.98;;
18340;SDS011;9296;48.084;16.352;2023-03-05T09:30:02;16.67;;;11.15;;
18340;SDS011;9296;48.084;16.352;2023-03-05T09:32:30;16.90;;;10.57;;
18340;SDS011;9296;48.084;16.352;2023-03-05T09:34:57;18.42;;;11.55;;
18340;SDS011;9296;48.084;16.352;2023-03-05T09:37:26;20.30;;;11.82;;
18340;SDS011;9296;48.084;16.352;2023-03-05T09:39:54;19.42;;;11.73;;
18340;SDS011;9296;48.084;16.352;2023-03-05T09:42:28;18.95;;;11.45;;
18340;SDS011;9296;48.084;16.352;2023-03-05T09:44:59;18.95;;;11.02;;
18340;SDS011;9296;48.084;16.352;2023-03-05T09:47:38;19.27;;;10.50;;
18340;SDS011;9296;48.084;16.352;2023-03-05T09:50:11;20.73;;;11.55;;
18340;SDS011;9296;48.084;16.352;2023-03-05T09:52:44;18.08;;;10.63;;
18340;SDS011;9296;48.084;16.352;2023-03-05T09:55:13;23.80;;;12.90;;
18340;SDS011;9296;48.084;16.352;2023-03-05T09:57:44;19.63;;;11.18;;
18340;SDS011;9296;48.084;16.352;2023-03-05T10:00:19;22.10;;;12.88;;
18340;SDS011;9296;48.084;16.352;2023-03-05T10:02:49;20.33;;;11.55;;
18340;SDS011;9296;48.084;16.352;2023-03-05T10:05:21;21.45;;;11.95;;
18340;SDS011;9296;48.084;16.352;2023-03-05T10:07:52;20.95;;;11.95;;
18340;SDS011;9296;48.084;16.352;2023-03-05T10:10:22;21.35;;;12.55;;
18340;SDS011;9296;48.084;16.352;2023-03-05T10:12:50;19.88;;;11.68;;
18340;SDS011;9296;48.084;16.352;2023-03-05T10:15:19;19.40;;;11.43;;
18340;SDS011;9296;48.084;16.352;2023-03-05T10:17:49;19.40;;;11.27;;
18340;SDS011;9296;48.084;16.352;2023-03-05T10:20:29;19.98;;;11.85;;
18340;SDS011;9296;48.084;16.352;2023-03-05T10:23:13;23.45;;;12.75;;
18340;SDS011;9296;48.084;16.352;2023-03-05T10:25:51;18.08;;;10.73;;
18340;SDS011;9296;48.084;16.352;2023-03-05T10:28:21;19.88;;;12.02;;
18340;SDS011;9296;48.084;16.352;2023-03-05T10:30:52;20.33;;;12.30;;
18340;SDS011;9296;48.084;16.352;2023-03-05T10:33:22;18.52;;;10.63;;
18340;SDS011;9296;48.084;16.352;2023-03-05T10:36:03;18.77;;;11.10;;
18340;SDS011;9296;48.084;16.352;2023-03-05T10:38:47;21.55;;;11.73;;
18340;SDS011;9296;48.084;16.352;2023-03-05T10:41:22;17.73;;;10.70;;
18340;SDS011;9296;48.084;16.352;2023-03-05T10:43:53;19.40;;;10.70;;
18340;SDS011;9296;48.084;16.352;2023-03-05T10:46:31;18.83;;;11.02;;
18340;SDS011;9296;48.084;16.352;2023-03-05T10:49:01;20.23;;;11.38;;
18340;SDS011;9296;48.084;16.352;2023-03-05T10:51:32;17.70;;;11.20;;
18340;SDS011;9296;48.084;16.352;2023-03-05T10:54:02;18.52;;;10.95;;
18340;SDS011;9296;48.084;16.352;2023-03-05T10:56:31;20.95;;;10.75;;
18340;SDS011;9296;48.084;16.352;2023-03-05T10:58:58;19.98;;;11.60;;
18340;SDS011;9296;48.084;16.352;2023-03-05T11:01:26;18.98;;;11.40;;
18340;SDS011;9296;48.084;16.352;2023-03-05T11:03:55;15.95;;;10.18;;
18340;SDS011;9296;48.084;16.352;2023-03-05T11:06:27;18.58;;;10.98;;
18340;SDS011;9296;48.084;16.352;2023-03-05T11:08:55;23.25;;;12.07;;
18340;SDS011;9296;48.084;16.352;2023-03-05T11:11:24;18.80;;;11.45;;
18340;SDS011;9296;48.084;16.352;2023-03-05T11:13:53;18.90;;;11.35;;
18340;SDS011;9296;48.084;16.352;2023-03-05T11:16:22;18.30;;;11.25;;
18340;SDS011;9296;48.084;16.352;2023-03-05T11:18:49;20.30;;;12.20;;
18340;SDS011;9296;48.084;16.352;2023-03-05T11:21:20;19.88;;;11.52;;
18340;SDS011;9296;48.084;16.352;2023-03-05T11:24:05;23.13;;;12.10;;
18340;SDS011;9296;48.084;16.352;2023-03-05T11:26:34;21.90;;;12.45;;
18340;SDS011;9296;48.084;16.352;2023-03-05T11:29:02;20.23;;;11.90;;
18340;SDS011;9296;48.084;16.352;2023-03-05T11:31:34;22.55;;;12.35;;
18340;SDS011;9296;48.084;16.352;2023-03-05T11:34:03;23.58;;;12.88;;
18340;SDS011;9296;48.084;16.352;2023-03-05T11:36:31;20.85;;;12.32;;
18340;SDS011;9296;48.084;16.352;2023-03-05T11:38:59;22.73;;;12.55;;
18340;SDS011;9296;48.084;16.352;2023-03-05T11:41:31;21.95;;;12.73;;
18340;SDS011;9296;48.084;16.352;2023-03-05T11:44:00;20.00;;;12.07;;
18340;SDS011;9296;48.084;16.352;2023-03-05T11:46:30;20.65;;;11.95;;
18340;SDS011;9296;48.084;16.352;2023-03-05T11:49:02;20.38;;;12.27;;
18340;SDS011;9296;48.084;16.352;2023-03-05T11:51:30;23.65;;;12.75;;
18340;SDS011;9296;48.084;16.352;2023-03-05T11:54:00;20.13;;;11.77;;
18340;SDS011;9296;48.084;16.352;2023-03-05T11:56:32;19.48;;;11.45;;
18340;SDS011;9296;48.084;16.352;2023-03-05T11:59:02;22.00;;;11.85;;
18340;SDS011;9296;48.084;16.352;2023-03-05T12:01:31;19.60;;;12.23;;
18340;SDS011;9296;48.084;16.352;2023-03-05T12:04:00;18.75;;;11.40;;
18340;SDS011;9296;48.084;16.352;2023-03-05T12:06:28;18.30;;;11.00;;
18340;SDS011;9296;48.084;16.352;2023-03-05T12:08:56;21.92;;;12.75;;
18340;SDS011;9296;48.084;16.352;2023-03-05T12:11:24;19.33;;;11.45;;
18340;SDS011;9296;48.084;16.352;2023-03-05T12:13:53;22.83;;;11.35;;
18340;SDS011;9296;48.084;16.352;2023-03-05T12:16:26;20.38;;;11.77;;
18340;SDS011;9296;48.084;16.352;2023-03-05T12:18:56;21.92;;;12.10;;
18340;SDS011;9296;48.084;16.352;2023-03-05T12:21:28;19.38;;;11.68;;
18340;SDS011;9296;48.084;16.352;2023-03-05T12:23:57;21.13;;;11.90;;
18340;SDS011;9296;48.084;16.352;2023-03-05T12:26:52;21.45;;;11.68;;
18340;SDS011;9296;48.084;16.352;2023-03-05T12:29:26;19.63;;;11.82;;
18340;SDS011;9296;48.084;16.352;2023-03-05T12:31:55;18.55;;;11.43;;
18340;SDS011;9296;48.084;16.352;2023-03-05T12:40:02;19.42;;;11.30;;
18340;SDS011;9296;48.084;16.352;2023-03-05T12:42:43;20.80;;;11.65;;
18340;SDS011;9296;48.084;16.352;2023-03-05T12:50:47;19.65;;;11.07;;
18340;SDS011;9296;48.084;16.352;2023-03-05T12:53:17;17.10;;;10.70;;
18340;SDS011;9296;48.084;16.352;2023-03-05T12:55:48;19.40;;;10.85;;
18340;SDS011;9296;48.084;16.352;2023-03-05T12:58:18;19.08;;;11.10;;
18340;SDS011;9296;48.084;16.352;2023-03-05T13:00:47;17.85;;;10.63;;
18340;SDS011;9296;48.084;16.352;2023-03-05T13:03:16;18.45;;;10.75;;
18340;SDS011;9296;48.084;16.352;2023-03-05T13:05:48;18.55;;;9.95;;
18340;SDS011;9296;48.084;16.352;2023-03-05T13:08:18;24.73;;;11.68;;
18340;SDS011;9296;48.084;16.352;2023-03-05T13:10:50;18.23;;;10.70;;
18340;SDS011;9296;48.084;16.352;2023-03-05T13:13:18;18.25;;;10.30;;
18340;SDS011;9296;48.084;16.352;2023-03-05T13:15:46;19.80;;;10.70;;
18340;SDS011;9296;48.084;16.352;2023-03-05T13:18:15;14.23;;;9.38;;
18340;SDS011;9296;48.084;16.352;2023-03-05T13:20:45;18.65;;;9.32;;
18340;SDS011;9296;48.084;16.352;2023-03-05T13:23:18;17.13;;;9.98;;
18340;SDS011;9296;48.084;16.352;2023-03-05T13:25:55;17.25;;;10.00;;
18340;SDS011;9296;48.084;16.352;2023-03-05T13:28:22;17.23;;;10.07;;
18340;SDS011;9296;48.084;16.352;2023-03-05T13:30:50;15.88;;;10.38;;
18340;SDS011;9296;48.084;16.352;2023-03-05T13:33:18;18.77;;;10.57;;
18340;SDS011;9296;48.084;16.352;2023-03-05T13:35:45;17.52;;;10.40;;
18340;SDS011;9296;48.084;16.352;2023-03-05T13:38:21;17.98;;;9.85;;
18340;SDS011;9296;48.084;16.352;2023-03-05T13:41:02;17.85;;;10.02;;
18340;SDS011;9296;48.084;16.352;2023-03-05T13:43:30;17.42;;;10.32;;
18340;SDS011;9296;48.084;16.352;2023-03-05T13:45:57;16.13;;;9.25;;
18340;SDS011;9296;48.084;16.352;2023-03-05T13:48:25;15.25;;;9.43;;
18340;SDS011;9296;48.084;16.352;2023-03-05T13:50:53;15.85;;;8.65;;
18340;SDS011;9296;48.084;16.352;2023-03-05T13:53:23;12.65;;;7.20;;
18340;SDS011;9296;48.084;16.352;2023-03-05T13:55:51;15.82;;;6.57;;
18340;SDS011;9296;48.084;16.352;2023-03-05T14:01:09;10.75;;;6.05;;
18340;SDS011;9296;48.084;16.352;2023-03-05T14:03:38;10.32;;;5.80;;
18340;SDS011;9296;48.084;16.352;2023-03-05T14:08:35;10.90;;;5.35;;
18340;SDS011;9296;48.084;16.352;2023-03-05T14:11:10;12.65;;;5.80;;
18340;SDS011;9296;48.084;16.352;2023-03-05T14:13:37;9.77;;;5.93;;
18340;SDS011;9296;48.084;16.352;2023-03-05T14:16:05;8.60;;;5.05;;
18340;SDS011;9296;48.084;16.352;2023-03-05T14:18:32;7.82;;;4.72;;
18340;SDS011;9296;48.084;16.352;2023-03-05T14:21:01;10.43;;;5.20;;
18340;SDS011;9296;48.084;16.352;2023-03-05T14:23:37;9.25;;;5.13;;
18340;SDS011;9296;48.084;16.352;2023-03-05T14:26:18;9.25;;;4.90;;
18340;SDS011;9296;48.084;16.352;2023-03-05T14:28:50;9.45;;;5.00;;
18340;SDS011;9296;48.084;16.352;2023-03-05T14:31:17;9.23;;;4.75;;
18340;SDS011;9296;48.084;16.352;2023-03-05T14:33:45;7.72;;;4.50;;
18340;SDS011;9296;48.084;16.352;2023-03-05T14:36:13;9.45;;;4.63;;
18340;SDS011;9296;48.084;16.352;2023-03-05T14:38:47;9.68;;;5.00;;
18340;SDS011;9296;48.084;16.352;2023-03-05T14:41:30;7.00;;;4.13;;
18340;SDS011;9296;48.084;16.352;2023-03-05T14:43:58;8.10;;;4.25;;
18340;SDS011;9296;48.084;16.352;2023-03-05T14:46:25;10.32;;;4.53;;
18340;SDS011;9296;48.084;16.352;2023-03-05T14:48:53;13.93;;;5.55;;
18340;SDS011;9296;48.084;16.352;2023-03-05T14:51:20;11.73;;;6.65;;
18340;SDS011;9296;48.084;16.352;2023-03-05T14:53:48;11.88;;;6.30;;
18340;SDS011;9296;48.084;16.352;2023-03-05T14:56:16;9.07;;;5.10;;
18340;SDS011;9296;48.084;16.352;2023-03-05T14:58:44;9.15;;;5.13;;
18340;SDS011;9296;48.084;16.352;2023-03-05T15:03:58;9.60;;;4.78;;
18340;SDS011;9296;48.084;16.352;2023-03-05T15:06:27;10.32;;;5.05;;
18340;SDS011;9296;48.084;16.352;2023-03-05T15:08:58;11.80;;;5.85;;
18340;SDS011;9296;48.084;16.352;2023-03-05T15:11:25;12.05;;;5.28;;
18340;SDS011;9296;48.084;16.352;2023-03-05T15:13:53;7.25;;;4.25;;
18340;SDS011;9296;48.084;16.352;2023-03-05T15:16:20;8.38;;;4.85;;
18340;SDS011;9296;48.084;16.352;2023-03-05T15:18:48;8.60;;;4.47;;
18340;SDS011;9296;48.084;16.352;2023-03-05T15:21:15;7.05;;;4.15;;
18340;SDS011;9296;48.084;16.352;2023-03-05T15:23:42;7.65;;;4.55;;
18340;SDS011;9296;48.084;16.352;2023-03-05T15:26:12;8.65;;;5.00;;
18340;SDS011;9296;48.084;16.352;2023-03-05T15:28:40;7.47;;;4.43;;
18340;SDS011;9296;48.084;16.352;2023-03-05T15:34:04;10.02;;;4.85;;
18340;SDS011;9296;48.084;16.352;2023-03-05T15:36:31;9.82;;;4.88;;